• Join FlightAware (Why Join?)
  • Login
  • US Flag 
04:19PM EST


 

Airport Tracker/Info


-or-


 

Live Flight TrackerFlight Track Log ✈ OPT452 ✈ 17-Apr-2013 ✈ KTPA - KHEG

Flight Track Log - Related Links

Times and Time Zones

All times are in EDT time to prevent confusion due to time zone crossing. See the OPT452 flight status page for this flight to view local times or setup timezone preferences in your user account.

Time Position Orientation Groundspeed Altitude Reporting Facility
EDT Latitude Longitude Course Direction KTS MPH feet Rate Location/Type
02:54PM 27.9833 -82.5333 358° North 157 181 600  Level Tampa TRACON
02:56PM 28.1078 -82.5372 358° North 235 270 5,800 2,400 Climbing Jacksonville Center
02:57PM 28.1683 -82.5369 360° North 230 265 8,200 2,220 Climbing Jacksonville Center
02:58PM 28.2350 -82.5322 North 230 265 10,300 2,100 Climbing Jacksonville Center
02:59PM 28.2997 -82.5294 North 230 265 12,400 1,800 Climbing Jacksonville Center
03:00PM 28.3664 -82.5197 North 235 270 14,000 780 Climbing Jacksonville Center
03:01PM 28.4414 -82.5150 North 242 278 14,000  Level Jacksonville Center
03:02PM 28.5125 -82.5122 North 253 291 14,000  Level Jacksonville Center
03:03PM 28.5814 -82.5050 North 253 291 14,000  Level Jacksonville Center
03:04PM 28.6481 -82.4903 11° North 241 277 14,000  Level Jacksonville Center
03:05PM 28.7189 -82.4758 10° North 236 272 14,000  Level Jacksonville Center
03:06PM 28.7817 -82.4639 North 236 272 14,000  Level Jacksonville Center
03:07PM 28.8483 -82.4469 13° North 236 272 14,000  Level Jacksonville Center
03:08PM 28.9150 -82.4347 North 236 272 14,000  Level Jacksonville Center
03:09PM 28.9817 -82.4203 11° North 236 272 14,000  Level Jacksonville Center
03:10PM 29.0444 -82.4056 12° North 236 272 14,000  Level Jacksonville Center
03:11PM 29.1111 -82.3933 North 236 272 14,000  Level Jacksonville Center
03:12PM 29.1758 -82.3789 11° North 236 272 14,000  Level Jacksonville Center
03:13PM 29.2403 -82.3667 North 236 272 14,000  Level Jacksonville Center
03:14PM 29.3050 -82.3519 11° North 236 272 14,000  Level Jacksonville Center
03:15PM 29.3425 -82.3494 North 234 269 14,000  Level Jacksonville Center
03:15PM 29.3697 -82.3397 17° North 236 272 14,000  Level Jacksonville Center
03:16PM 29.3842 -82.3397 360° North 232 267 14,000  Level Jacksonville Center
03:16PM 29.4322 -82.3250 15° North 236 272 14,000  Level Jacksonville Center
03:17PM 29.4969 -82.3128 North 236 272 14,000  Level Jacksonville Center
03:17PM 29.5117 -82.3150 353° North 233 268 14,000  Level Jacksonville Center
03:18PM 29.5594 -82.2981 17° North 236 272 14,000  Level Jacksonville Center
03:18PM 29.5761 -82.3003 353° North 233 268 14,000  Level Jacksonville Center
03:19PM 29.6242 -82.2858 15° North 236 272 14,000  Level Jacksonville Center
03:19PM 29.6428 -82.2833 North 232 267 14,000 -840 Level Jacksonville Center
03:20PM 29.6867 -82.2639 21° North 236 272 13,200 -1,200 Descending Jacksonville Center
03:21PM 29.7033 -82.2542 27° Northeast 233 268 12,800 -1,500 Descending Jacksonville Center
03:21PM 29.7408 -82.2275 32° Northeast 231 266 11,700 -1,500 Descending Jacksonville Center
03:22PM 29.7594 -82.2178 24° Northeast 231 266 11,300 -1,200 Descending Jacksonville Center
03:22PM 29.7928 -82.1986 27° Northeast 226 260 10,500 -1,500 Descending Jacksonville Center
03:23PM 29.8114 -82.1839 34° Northeast 226 260 9,800 -1,500 Descending Jacksonville Center
03:23PM 29.8447 -82.1669 24° Northeast 219 252 9,000 -1,380 Descending Jacksonville Center
03:24PM 29.8656 -82.1550 26° Northeast 205 236 8,400 -1,440 Descending Jacksonville Center
03:24PM 29.8989 -82.1403 21° North 214 246 7,600 -1,620 Descending Jacksonville Center
03:25PM 29.9219 -82.1328 16° North 199 229 6,800 -1,680 Descending Jacksonville Center
03:26PM 29.9761 -82.1086 21° North 186 214 5,200 -1,440 Descending Jacksonville Center
03:27PM 30.0197 -82.0842 26° Northeast 173 199 3,800 -1,080 Descending Jacksonville Center
03:28PM 30.0694 -82.0453 34° Northeast 180 207 3,000 -480 Descending Jacksonville Center
03:29PM 30.1131 -82.0136 32° Northeast 185 213 2,900 -540 Descending Jacksonville Center
03:30PM 30.1506 -81.9797 38° Northeast 167 192 2,000 -480 Descending Jacksonville Center
03:31PM 30.1878 -81.9433 40° Northeast 189 217 2,000  Level Jacksonville Center
03:32PM 30.2231 -81.9117 38° Northeast 174 200 2,000 -480 Level Jacksonville Center
03:33PM 30.2542 -81.8658 52° Northeast 135 155 1,100 -840 Descending Jacksonville Center
03:34PM 30.2683 -81.8342 63° Northeast 109 125 400 -780 Descending Jacksonville Center